Terminal Aerodrome Forecast
Issued by NWS

Current Version | Previous Version | Text Only | Print | Product List | Glossary Off
Versions: 1 2 3 4 5 6 7 8 9 10 11 12 13 14 15 16

000
FTUS41 KILN 010500
TAFLUK
TAF
KLUK 010520Z 0106/0206 34004KT P6SM OVC040
     FM011300 34010KT P6SM SCT050
     FM012300 34005KT P6SM SCT050
     FM020200 VRB03KT P6SM SCT040=

USA.gov is the U.S. government's official web portal to all federal, state and local government web resources and services.